createdAt,value
2022-09-10T00:07:49.369Z,99317.55
2022-09-10T00:17:25.313Z,99309.13
2022-09-10T00:26:58.883Z,99308.13
2022-09-10T00:36:32.229Z,99318.28
2022-09-10T00:46:06.492Z,99317.67
2022-09-10T00:55:41.109Z,99314.54
2022-09-10T01:05:16.004Z,99306.69
2022-09-10T01:14:52.068Z,99299.65
2022-09-10T01:24:24.889Z,99311.97
2022-09-10T01:33:59.287Z,99314.00
2022-09-10T01:43:35.263Z,99312.94
2022-09-10T01:53:07.586Z,99313.77
2022-09-10T02:02:43.499Z,99293.06
2022-09-10T02:12:16.331Z,99291.80
2022-09-10T02:21:52.469Z,99283.22
2022-09-10T02:31:25.463Z,99270.95
2022-09-10T02:40:59.929Z,99274.80
2022-09-10T02:50:34.633Z,99273.78
2022-09-10T03:00:10.240Z,99278.39
2022-09-10T03:09:43.212Z,99283.84
2022-09-10T03:19:17.390Z,99283.88
2022-09-10T03:28:51.984Z,99288.27
2022-09-10T03:38:26.194Z,99282.05
2022-09-10T03:48:02.229Z,99288.97
2022-09-10T03:57:34.995Z,99285.33
2022-09-10T04:07:09.382Z,99286.50
2022-09-10T04:16:45.544Z,99284.94
2022-09-10T04:26:18.631Z,99281.64
2022-09-10T04:35:53.196Z,99281.73
2022-09-10T04:45:27.742Z,99289.14
2022-09-10T04:55:02.241Z,99290.16
2022-09-10T05:04:38.252Z,99300.22
2022-09-10T05:14:12.568Z,99298.53
2022-09-10T05:23:46.960Z,99299.63
2022-09-10T05:33:19.520Z,99305.10
2022-09-10T05:42:54.052Z,99305.91
2022-09-10T05:52:30.014Z,99312.34
2022-09-10T06:02:02.411Z,99320.51
2022-09-10T06:11:38.514Z,99320.32
2022-09-10T06:21:10.900Z,99321.48
2022-09-10T06:30:47.000Z,99332.88
2022-09-10T06:40:21.171Z,99339.96
2022-09-10T06:41:23.619Z,99341.80
2022-09-10T06:50:56.175Z,99341.16
2022-09-10T07:00:30.548Z,99347.41
2022-09-10T07:10:05.397Z,99350.89
2022-09-10T07:19:41.888Z,99357.53
2022-09-10T07:29:14.547Z,99354.30
2022-09-10T07:38:51.065Z,99361.27
2022-09-10T07:39:55.127Z,99365.27
2022-09-10T07:49:28.925Z,99365.69
2022-09-10T07:50:31.415Z,99367.64
2022-09-10T08:00:05.271Z,99376.70
2022-09-10T08:09:39.547Z,99380.03
2022-09-10T08:19:14.383Z,99394.59
2022-09-10T08:20:16.925Z,99390.20
2022-09-10T08:21:19.418Z,99393.38
2022-09-10T08:22:23.478Z,99400.12
2022-09-10T08:31:55.010Z,99399.83
2022-09-10T08:32:57.477Z,99406.76
2022-09-10T08:33:59.953Z,99407.30
2022-09-10T08:35:02.486Z,99406.12
2022-09-10T08:36:04.975Z,99405.17
2022-09-10T08:37:07.418Z,99406.97
2022-09-10T08:38:09.895Z,99409.08
2022-09-10T08:39:13.962Z,99404.95
2022-09-10T08:40:16.578Z,99401.83
2022-09-10T08:41:18.809Z,99403.92
2022-09-10T08:42:22.908Z,99406.78
2022-09-10T08:43:26.833Z,99402.98
2022-09-10T08:44:31.764Z,99404.48
2022-09-10T08:45:35.675Z,99409.25
2022-09-10T08:46:39.593Z,99407.48
2022-09-10T08:47:43.582Z,99409.47
2022-09-10T08:48:45.933Z,99409.92
2022-09-10T08:49:48.456Z,99403.61
2022-09-10T08:50:52.462Z,99407.42
2022-09-10T08:51:54.794Z,99411.03
2022-09-10T08:52:57.243Z,99411.47
2022-09-10T08:54:01.377Z,99414.82
2022-09-10T08:55:03.674Z,99408.10
2022-09-10T08:56:07.718Z,99418.95
2022-09-10T08:57:13.924Z,99414.78
2022-09-10T08:58:16.336Z,99413.67
2022-09-10T08:59:21.390Z,99408.89
2022-09-10T09:00:25.273Z,99406.67
2022-09-10T09:01:27.701Z,99409.52
2022-09-10T09:02:47.543Z,99411.23
2022-09-10T09:03:32.756Z,99413.45
2022-09-10T09:04:36.879Z,99412.45
2022-09-10T09:14:08.043Z,99422.35
2022-09-10T09:15:12.233Z,99421.31
2022-09-10T09:16:14.595Z,99420.42
2022-09-10T09:17:18.701Z,99422.89
2022-09-10T09:18:21.013Z,99421.33
2022-09-10T09:19:23.491Z,99422.78
2022-09-10T09:20:25.974Z,99424.89
2022-09-10T09:21:28.445Z,99424.36
2022-09-10T09:22:35.888Z,99423.95
2022-09-10T09:23:35.774Z,99423.45
2022-09-10T09:24:38.229Z,99423.17
2022-09-10T09:25:42.257Z,99423.45
2022-09-10T09:26:44.563Z,99426.26
2022-09-10T09:27:48.693Z,99428.94
2022-09-10T09:28:51.005Z,99426.70
2022-09-10T09:29:53.533Z,99426.55
2022-09-10T09:30:56.050Z,99429.22
2022-09-10T09:31:58.466Z,99428.39
2022-09-10T09:33:00.859Z,99428.63
2022-09-10T09:34:03.342Z,99428.05
2022-09-10T09:35:05.835Z,99435.08
2022-09-10T09:36:08.247Z,99436.90
2022-09-10T09:37:12.340Z,99449.46
2022-09-10T09:38:14.692Z,99438.29
2022-09-10T09:39:17.146Z,99436.39
2022-09-10T09:40:19.626Z,99436.55
2022-09-10T09:41:23.677Z,99436.17
2022-09-10T09:42:27.593Z,99436.38
2022-09-10T09:43:31.512Z,99436.50
2022-09-10T09:44:33.869Z,99439.64
2022-09-10T09:45:37.934Z,99430.09
2022-09-10T09:46:41.828Z,99430.78
2022-09-10T09:47:45.768Z,99430.89
2022-09-10T09:48:49.687Z,99433.73
2022-09-10T09:49:51.965Z,99434.16
2022-09-10T09:50:54.438Z,99428.16
2022-09-10T09:51:58.544Z,99431.11
2022-09-10T09:53:00.872Z,99431.90
2022-09-10T09:55:21.178Z,99430.14
2022-09-10T09:56:08.300Z,99432.09
2022-09-10T09:57:10.877Z,99431.06
2022-09-10T09:58:13.339Z,99428.48
2022-09-10T09:59:15.826Z,99427.13
2022-09-10T10:00:18.259Z,99425.80
2022-09-10T10:01:22.316Z,99427.50
2022-09-10T10:02:24.698Z,99429.52
2022-09-10T10:03:27.107Z,99429.77
2022-09-10T10:04:31.195Z,99433.36
2022-09-10T10:05:35.163Z,99434.72
2022-09-10T10:06:37.460Z,99433.28
2022-09-10T10:07:39.904Z,99432.02
2022-09-10T10:08:43.936Z,99430.50
2022-09-10T10:09:47.920Z,99436.19
2022-09-10T10:10:50.268Z,99429.58
2022-09-10T10:11:58.395Z,99425.41
2022-09-10T10:13:02.142Z,99431.39
2022-09-10T10:14:04.405Z,99431.05
2022-09-10T10:15:06.884Z,99429.51
2022-09-10T10:16:09.397Z,99427.33
2022-09-10T10:17:11.888Z,99418.23
2022-09-10T10:18:14.314Z,99421.05
2022-09-10T10:19:16.846Z,99422.48
2022-09-10T10:20:19.312Z,99422.84
2022-09-10T10:21:21.767Z,99422.95
2022-09-10T10:22:25.283Z,99420.59
2022-09-10T10:23:30.891Z,99420.89
2022-09-10T10:24:30.138Z,99417.69
2022-09-10T10:25:32.577Z,99419.56
2022-09-10T10:26:35.081Z,99418.58
2022-09-10T10:27:37.567Z,99419.33
2022-09-10T10:28:40.122Z,99417.91
2022-09-10T10:29:43.561Z,99415.92
2022-09-10T10:30:45.980Z,99414.59
2022-09-10T10:31:50.019Z,99408.26
2022-09-10T10:32:52.316Z,99412.76
2022-09-10T10:33:54.734Z,99411.17
2022-09-10T10:34:57.223Z,99410.78
2022-09-10T10:35:59.702Z,99411.89
2022-09-10T10:37:05.087Z,99411.08
2022-09-10T10:38:07.319Z,99411.61
2022-09-10T10:39:09.791Z,99411.20
2022-09-10T10:40:13.936Z,99413.10
2022-09-10T10:41:16.151Z,99413.04
2022-09-10T10:42:18.635Z,99413.97
2022-09-10T10:43:21.176Z,99411.55
2022-09-10T10:44:23.635Z,99415.25
2022-09-10T10:45:26.036Z,99416.95
2022-09-10T10:46:30.204Z,99409.55
2022-09-10T10:47:34.213Z,99416.81
2022-09-10T10:48:36.583Z,99412.70
2022-09-10T10:49:39.040Z,99418.97
2022-09-10T10:50:43.065Z,99412.30
2022-09-10T10:51:47.024Z,99411.95
2022-09-10T10:52:50.999Z,99409.31
2022-09-10T10:53:53.273Z,99409.57
2022-09-10T10:54:57.361Z,99409.58
2022-09-10T10:55:59.656Z,99413.07
2022-09-10T10:57:03.752Z,99411.28
2022-09-10T10:58:06.075Z,99411.44
2022-09-10T10:59:08.570Z,99403.99
2022-09-10T11:00:11.050Z,99406.31
2022-09-10T11:01:15.156Z,99404.10
2022-09-10T11:02:19.248Z,99405.09
2022-09-10T11:03:23.029Z,99400.23
2022-09-10T11:04:25.405Z,99405.64
2022-09-10T11:05:27.887Z,99394.39
2022-09-10T11:06:31.957Z,99394.00
2022-09-10T11:07:34.295Z,99392.94
2022-09-10T11:08:38.562Z,99390.70
2022-09-10T11:09:40.781Z,99390.33
2022-09-10T11:19:13.926Z,99387.39
2022-09-10T11:20:31.715Z,99390.97
2022-09-10T11:21:18.945Z,99402.05
2022-09-10T11:22:21.434Z,99395.28
2022-09-10T11:23:23.980Z,99394.88
2022-09-10T11:24:26.451Z,99392.24
2022-09-10T11:25:29.003Z,99398.83
2022-09-10T11:26:31.439Z,99392.60
2022-09-10T11:27:33.918Z,99393.95
2022-09-10T11:28:36.422Z,99388.00
2022-09-10T11:29:38.893Z,99387.60
2022-09-10T11:30:41.409Z,99385.98
2022-09-10T11:31:43.883Z,99391.75
2022-09-10T11:32:47.953Z,99384.02
2022-09-10T11:33:51.963Z,99381.17
2022-09-10T11:34:55.985Z,99388.09
2022-09-10T11:35:59.896Z,99383.59
2022-09-10T11:37:02.274Z,99384.92
2022-09-10T11:38:04.750Z,99387.38
2022-09-10T11:39:08.799Z,99380.31
2022-09-10T11:40:11.176Z,99380.16
2022-09-10T11:41:13.589Z,99382.34
2022-09-10T11:42:17.630Z,99390.34
2022-09-10T11:43:19.990Z,99379.78
2022-09-10T11:44:24.049Z,99378.67
2022-09-10T11:45:26.427Z,99379.25
2022-09-10T11:46:30.570Z,99378.45
2022-09-10T11:47:32.871Z,99389.23
2022-09-10T11:48:35.428Z,99381.45
2022-09-10T11:49:39.514Z,99380.23
2022-09-10T11:50:41.907Z,99379.70
2022-09-10T11:51:45.996Z,99377.59
2022-09-10T11:52:48.439Z,99375.07
2022-09-10T11:53:52.512Z,99375.77
2022-09-10T11:54:56.470Z,99380.66
2022-09-10T11:55:58.870Z,99379.11
2022-09-10T11:57:01.358Z,99390.41
2022-09-10T11:58:03.771Z,99382.28
2022-09-10T11:59:06.404Z,99380.52
2022-09-10T12:00:10.439Z,99385.53
2022-09-10T12:01:12.798Z,99379.97
2022-09-10T12:02:15.355Z,99378.11
2022-09-10T12:03:17.894Z,99381.34
2022-09-10T12:04:20.317Z,99387.23
2022-09-10T12:05:22.795Z,99382.78
2022-09-10T12:06:25.252Z,99375.13
2022-09-10T12:07:27.760Z,99380.40
2022-09-10T12:08:30.258Z,99378.59
2022-09-10T12:09:34.037Z,99379.91
2022-09-10T12:10:36.071Z,99371.23
2022-09-10T12:11:38.566Z,99373.53
2022-09-10T12:12:40.996Z,99383.05
2022-09-10T12:13:43.569Z,99378.94
2022-09-10T12:14:46.016Z,99377.67
2022-09-10T12:15:48.472Z,99377.66
2022-09-10T12:16:50.959Z,99379.02
2022-09-10T12:17:53.329Z,99382.00
2022-09-10T12:18:55.892Z,99377.83
2022-09-10T12:19:58.452Z,99382.80
2022-09-10T12:21:00.880Z,99382.48
2022-09-10T12:22:03.374Z,99380.56
2022-09-10T12:23:05.894Z,99376.48
2022-09-10T12:24:08.310Z,99373.81
2022-09-10T12:25:10.856Z,99372.98
2022-09-10T12:26:13.290Z,99376.24
2022-09-10T12:27:15.759Z,99376.14
2022-09-10T12:28:18.276Z,99370.55
2022-09-10T12:29:20.797Z,99372.23
2022-09-10T12:30:23.314Z,99370.47
2022-09-10T12:31:25.745Z,99370.76
2022-09-10T12:32:28.211Z,99378.80
2022-09-10T12:33:30.707Z,99377.01
2022-09-10T12:34:33.224Z,99374.02
2022-09-10T12:35:36.727Z,99379.50
2022-09-10T12:36:39.087Z,99381.80
2022-09-10T12:37:41.596Z,99374.95
2022-09-10T12:38:44.058Z,99371.41
2022-09-10T12:39:46.633Z,99363.75
2022-09-10T12:40:49.058Z,99361.77
2022-09-10T12:41:53.139Z,99362.34
2022-09-10T12:42:55.645Z,99366.75
2022-09-10T12:43:58.134Z,99367.99
2022-09-10T12:45:00.617Z,99371.21
2022-09-10T12:46:04.102Z,99361.05
2022-09-10T12:47:06.459Z,99362.55
2022-09-10T12:48:08.973Z,99363.92
2022-09-10T12:49:11.438Z,99359.03
2022-09-10T12:50:13.925Z,99359.62
2022-09-10T12:51:18.018Z,99363.72
2022-09-10T12:52:20.356Z,99368.65
2022-09-10T12:53:22.842Z,99366.53
2022-09-10T12:54:25.334Z,99365.50
2022-09-10T12:55:27.785Z,99373.20
2022-09-10T12:56:30.255Z,99372.47
2022-09-10T12:57:32.755Z,99364.94
2022-09-10T12:58:36.928Z,99365.14
2022-09-10T12:59:39.245Z,99372.89
2022-09-10T13:00:41.696Z,99364.95
2022-09-10T13:01:44.282Z,99362.20
2022-09-10T13:02:48.305Z,99363.63
2022-09-10T13:03:50.659Z,99358.72
2022-09-10T13:04:53.141Z,99364.28
2022-09-10T13:05:57.238Z,99360.56
2022-09-10T13:06:59.628Z,99359.75
2022-09-10T13:08:02.055Z,99364.87
2022-09-10T13:09:06.151Z,99364.04
2022-09-10T13:10:08.499Z,99356.18
2022-09-10T13:11:11.022Z,99357.78
2022-09-10T13:12:15.094Z,99358.42
2022-09-10T13:13:17.422Z,99360.41
2022-09-10T13:14:21.513Z,99366.36
2022-09-10T13:15:23.872Z,99359.84
2022-09-10T13:16:26.369Z,99368.47
2022-09-10T13:17:28.879Z,99370.28
2022-09-10T13:18:31.366Z,99365.49
2022-09-10T13:19:34.829Z,99360.01
2022-09-10T13:20:37.279Z,99368.47
2022-09-10T13:21:41.355Z,99361.30
2022-09-10T13:22:43.755Z,99366.59
2022-09-10T13:23:46.264Z,99356.56
2022-09-10T13:24:48.776Z,99363.85
2022-09-10T13:25:51.522Z,99359.31
2022-09-10T13:26:54.230Z,99350.92
2022-09-10T13:27:56.774Z,99347.41
2022-09-10T13:28:59.200Z,99350.51
2022-09-10T13:30:03.330Z,99352.46
2022-09-10T13:31:07.394Z,99345.00
2022-09-10T13:32:09.682Z,99345.97
2022-09-10T13:33:13.820Z,99346.11
2022-09-10T13:34:16.161Z,99343.94
2022-09-10T13:35:18.653Z,99343.64
2022-09-10T13:36:22.731Z,99342.17
2022-09-10T13:37:26.623Z,99342.59
2022-09-10T13:38:28.989Z,99339.47
2022-09-10T13:39:31.551Z,99341.58
2022-09-10T13:40:35.654Z,99347.18
2022-09-10T13:41:38.024Z,99339.81
2022-09-10T13:42:40.538Z,99340.28
2022-09-10T13:43:43.007Z,99338.52
2022-09-10T13:44:47.091Z,99340.57
2022-09-10T13:45:51.108Z,99336.13
2022-09-10T13:46:53.380Z,99329.72
2022-09-10T13:47:55.904Z,99326.80
2022-09-10T13:48:58.430Z,99323.53
2022-09-10T13:50:00.998Z,99327.25
2022-09-10T13:51:03.393Z,99328.91
2022-09-10T13:52:06.911Z,99326.66
2022-09-10T13:53:09.348Z,99319.80
2022-09-10T13:54:11.870Z,99322.95
2022-09-10T13:55:15.981Z,99318.72
2022-09-10T13:56:18.414Z,99329.48
2022-09-10T13:57:23.559Z,99329.79
2022-09-10T13:58:27.406Z,99320.73
2022-09-10T13:59:29.786Z,99327.02
2022-09-10T14:00:33.867Z,99327.52
2022-09-10T14:01:36.260Z,99318.81
2022-09-10T14:02:40.349Z,99320.52
2022-09-10T14:03:47.580Z,99319.23
2022-09-10T14:04:49.717Z,99325.30
2022-09-10T14:05:52.195Z,99318.38
2022-09-10T14:06:54.744Z,99319.35
2022-09-10T14:07:57.243Z,99322.28
2022-09-10T14:08:59.788Z,99321.83
2022-09-10T14:10:02.341Z,99319.63
2022-09-10T14:11:06.478Z,99326.09
2022-09-10T14:12:10.364Z,99319.54
2022-09-10T14:13:12.749Z,99325.89
2022-09-10T14:14:15.240Z,99333.09
2022-09-10T14:15:17.995Z,99326.00
2022-09-10T14:16:22.064Z,99324.84
2022-09-10T14:17:26.099Z,99330.21
2022-09-10T14:18:28.415Z,99327.45
2022-09-10T14:19:30.907Z,99326.92
2022-09-10T14:20:33.466Z,99329.75
2022-09-10T14:21:35.960Z,99331.15
2022-09-10T14:22:38.467Z,99326.15
2022-09-10T14:23:41.037Z,99323.34
2022-09-10T14:24:45.052Z,99320.69
2022-09-10T14:25:47.575Z,99324.41
2022-09-10T14:26:50.184Z,99318.53
2022-09-10T14:27:55.292Z,99326.95
2022-09-10T14:28:55.131Z,99330.09
2022-09-10T14:29:57.629Z,99328.76
2022-09-10T14:31:01.725Z,99332.30
2022-09-10T14:32:04.095Z,99322.99
2022-09-10T14:33:06.580Z,99325.75
2022-09-10T14:34:10.657Z,99325.10
2022-09-10T14:35:13.003Z,99326.42
2022-09-10T14:36:15.470Z,99322.09
2022-09-10T14:37:19.565Z,99327.91
2022-09-10T14:38:21.899Z,99322.27
2022-09-10T14:39:24.372Z,99319.71
2022-09-10T14:40:26.902Z,99326.25
2022-09-10T14:41:29.326Z,99329.26
2022-09-10T14:42:31.823Z,99329.92
2022-09-10T14:43:34.243Z,99331.84
2022-09-10T14:44:38.329Z,99334.52
2022-09-10T14:45:40.683Z,99338.74
2022-09-10T14:46:43.157Z,99336.44
2022-09-10T14:47:47.243Z,99330.67
2022-09-10T14:48:49.577Z,99333.09
2022-09-10T14:49:52.042Z,99332.82
2022-09-10T14:50:54.514Z,99334.25
2022-09-10T14:51:56.996Z,99341.92
2022-09-10T14:53:01.354Z,99339.24
2022-09-10T14:54:03.748Z,99339.84
2022-09-10T14:55:06.283Z,99340.86
2022-09-10T14:56:08.754Z,99338.20
2022-09-10T14:57:11.251Z,99342.77
2022-09-10T14:58:13.723Z,99335.86
2022-09-10T14:59:17.977Z,99344.97
2022-09-10T15:00:20.316Z,99344.59
2022-09-10T15:01:24.554Z,99344.99
2022-09-10T15:02:27.748Z,99342.58
2022-09-10T15:03:31.859Z,99338.22
2022-09-10T15:04:34.356Z,99344.42
2022-09-10T15:05:38.320Z,99339.73
2022-09-10T15:06:40.614Z,99341.40
2022-09-10T15:07:44.729Z,99340.73
2022-09-10T15:08:47.130Z,99342.73
2022-09-10T15:09:51.179Z,99341.67
2022-09-10T15:10:53.521Z,99341.52
2022-09-10T15:11:58.645Z,99341.49
2022-09-10T15:13:00.913Z,99341.45
2022-09-10T15:14:03.404Z,99341.46
2022-09-10T15:15:05.815Z,99345.86
2022-09-10T15:16:09.888Z,99341.72
2022-09-10T15:17:12.179Z,99343.91
2022-09-10T15:18:14.725Z,99341.13
2022-09-10T15:19:17.225Z,99338.94
2022-09-10T15:20:19.649Z,99339.25
2022-09-10T15:21:23.731Z,99342.98
2022-09-10T15:22:26.069Z,99343.65
2022-09-10T15:23:30.144Z,99344.63
2022-09-10T15:24:42.732Z,99342.94
2022-09-10T15:25:38.318Z,99343.77
2022-09-10T15:26:39.082Z,99340.80
2022-09-10T15:27:43.020Z,99339.71
2022-09-10T15:28:46.982Z,99335.56
2022-09-10T15:29:49.377Z,99339.60
2022-09-10T15:30:51.923Z,99341.09
2022-09-10T15:31:54.478Z,99344.09
2022-09-10T15:32:56.881Z,99338.83
2022-09-10T15:34:00.991Z,99334.75
2022-09-10T15:35:03.283Z,99345.89
2022-09-10T15:36:05.780Z,99345.08
2022-09-10T15:37:08.219Z,99341.76
2022-09-10T15:38:10.753Z,99344.91
2022-09-10T15:39:13.252Z,99341.94
2022-09-10T15:40:17.301Z,99345.36
2022-09-10T15:41:19.699Z,99345.55
2022-09-10T15:42:22.197Z,99344.68
2022-09-10T15:43:24.742Z,99343.69
2022-09-10T15:44:27.203Z,99345.65
2022-09-10T15:45:29.672Z,99348.44
2022-09-10T15:46:32.424Z,99351.44
2022-09-10T15:47:36.395Z,99351.02
2022-09-10T15:48:40.555Z,99353.56
2022-09-10T15:49:42.776Z,99350.56
2022-09-10T15:50:45.278Z,99354.72
2022-09-10T15:51:49.372Z,99355.94
2022-09-10T15:52:51.715Z,99358.69
2022-09-10T15:53:55.182Z,99358.42
2022-09-10T15:54:57.583Z,99358.14
2022-09-10T15:56:00.259Z,99362.70
2022-09-10T15:57:02.705Z,99361.73
2022-09-10T15:58:05.143Z,99365.64
2022-09-10T15:59:09.186Z,99358.31
2022-09-10T16:00:11.586Z,99359.13
2022-09-10T16:01:14.147Z,99358.94
2022-09-10T16:02:16.482Z,99361.58
2022-09-10T16:03:20.520Z,99358.09
2022-09-10T16:04:22.841Z,99360.22
2022-09-10T16:05:26.894Z,99359.63
2022-09-10T16:06:29.192Z,99358.19
2022-09-10T16:07:33.279Z,99364.59
2022-09-10T16:08:37.320Z,99361.63
2022-09-10T16:09:41.187Z,99362.41
2022-09-10T16:10:45.139Z,99363.93
2022-09-10T16:11:47.494Z,99362.35
2022-09-10T16:12:51.807Z,99365.55
2022-09-10T16:13:58.965Z,99364.66
2022-09-10T16:15:01.008Z,99361.63
2022-09-10T16:16:05.339Z,99362.91
2022-09-10T16:17:07.613Z,99362.81
2022-09-10T16:18:10.050Z,99363.92
2022-09-10T16:19:14.127Z,99366.10
2022-09-10T16:20:16.443Z,99362.84
2022-09-10T16:21:20.457Z,99359.51
2022-09-10T16:22:24.406Z,99368.01
2022-09-10T16:23:28.314Z,99366.39
2022-09-10T16:24:30.685Z,99366.79
2022-09-10T16:25:33.091Z,99365.33
2022-09-10T16:26:37.194Z,99371.31
2022-09-10T16:27:43.129Z,99369.55
2022-09-10T16:28:42.059Z,99372.89
2022-09-10T16:29:44.555Z,99374.11
2022-09-10T16:30:47.055Z,99372.20
2022-09-10T16:31:49.562Z,99376.22
2022-09-10T16:41:21.896Z,99382.56
2022-09-10T16:42:27.038Z,99384.24
2022-09-10T16:43:30.961Z,99385.23
2022-09-10T16:53:02.156Z,99401.34
2022-09-10T16:54:06.294Z,99401.34
2022-09-10T16:55:08.715Z,99400.23
2022-09-10T16:56:12.779Z,99404.86
2022-09-10T16:57:16.263Z,99405.59
2022-09-10T16:58:20.219Z,99401.30
2022-09-10T16:59:22.579Z,99402.14
2022-09-10T17:00:26.639Z,99402.81
2022-09-10T17:01:34.041Z,99399.89
2022-09-10T17:02:38.110Z,99400.39
2022-09-10T17:03:42.001Z,99397.59
2022-09-10T17:04:47.264Z,99396.02
2022-09-10T17:05:50.459Z,99401.53
2022-09-10T17:06:52.815Z,99400.34
2022-09-10T17:07:55.288Z,99395.20
2022-09-10T17:08:57.757Z,99403.30
2022-09-10T17:10:01.799Z,99395.87
2022-09-10T17:11:04.121Z,99398.68
2022-09-10T17:12:07.586Z,99399.10
2022-09-10T17:13:11.540Z,99401.14
2022-09-10T17:14:14.070Z,99396.16
2022-09-10T17:15:16.502Z,99398.70
2022-09-10T17:24:51.520Z,99391.13
2022-09-10T17:25:53.952Z,99389.61
2022-09-10T17:26:56.427Z,99391.84
2022-09-10T17:27:58.885Z,99385.22
2022-09-10T17:37:31.324Z,99400.45
2022-09-10T17:47:05.102Z,99394.63
2022-09-10T17:56:40.790Z,99401.42
2022-09-10T18:06:13.097Z,99406.78
2022-09-10T18:15:49.158Z,99411.56
2022-09-10T18:25:21.484Z,99424.81
2022-09-10T18:34:57.232Z,99437.61
2022-09-10T18:44:31.223Z,99443.66
2022-09-10T18:54:04.101Z,99430.92
2022-09-10T19:03:38.343Z,99450.00
2022-09-10T19:13:13.004Z,99446.63
2022-09-10T19:22:47.280Z,99422.39
2022-09-10T19:32:22.177Z,99442.39
2022-09-10T19:41:56.308Z,99459.36
2022-09-10T19:51:32.218Z,99472.89
2022-09-10T20:01:04.743Z,99484.47
2022-09-10T20:10:39.199Z,99498.11
2022-09-10T20:20:15.034Z,99492.34
2022-09-10T20:29:49.195Z,99484.06
2022-09-10T20:30:53.176Z,99487.53
2022-09-10T20:40:25.012Z,99501.29
2022-09-10T20:49:59.018Z,99499.24
2022-09-10T20:59:34.444Z,99504.56
2022-09-10T21:09:07.771Z,99515.61
2022-09-10T21:18:43.700Z,99505.59
2022-09-10T21:28:16.156Z,99502.53
2022-09-10T21:29:20.273Z,99507.02
2022-09-10T21:38:51.874Z,99506.95
2022-09-10T21:48:26.178Z,99505.34
2022-09-10T21:58:02.296Z,99525.27
2022-09-10T22:07:35.293Z,99527.01
2022-09-10T22:17:09.777Z,99536.65
2022-09-10T22:26:44.374Z,99539.99
2022-09-10T22:36:20.243Z,99540.30
2022-09-10T22:45:53.841Z,99542.02
2022-09-10T22:55:28.008Z,99552.98
2022-09-10T23:05:02.555Z,99553.89
2022-09-10T23:14:38.959Z,99568.59
2022-09-10T23:24:13.307Z,99569.10
2022-09-10T23:33:46.064Z,99575.05
2022-09-10T23:43:22.203Z,99579.05
2022-09-10T23:52:54.867Z,99579.58
